createdAt,value
2017-01-05T00:00:57.586Z,0
2017-01-05T00:02:09.199Z,0
2017-01-05T00:03:20.588Z,0
2017-01-05T00:04:31.986Z,0
2017-01-05T00:05:43.640Z,0
2017-01-05T00:06:55.246Z,0
2017-01-05T00:08:06.653Z,0
2017-01-05T00:09:18.052Z,0
2017-01-05T00:10:29.652Z,0
2017-01-05T00:11:41.308Z,0
2017-01-05T00:12:52.715Z,0
2017-01-05T00:14:04.117Z,0
2017-01-05T00:15:15.518Z,0
2017-01-05T00:16:26.950Z,0
2017-01-05T00:17:38.399Z,0
2017-01-05T00:18:49.993Z,0
2017-01-05T00:20:01.590Z,0
2017-01-05T00:21:12.985Z,0
2017-01-05T00:22:24.389Z,0
2017-01-05T00:23:35.833Z,0
2017-01-05T00:24:47.460Z,0
2017-01-05T00:25:58.860Z,0
2017-01-05T00:27:10.260Z,0
2017-01-05T00:28:21.657Z,0
2017-01-05T00:29:33.104Z,0
2017-01-05T00:30:44.503Z,0
2017-01-05T00:31:55.897Z,0
2017-01-05T00:33:07.296Z,0
2017-01-05T00:34:18.686Z,0
2017-01-05T00:35:30.130Z,0
2017-01-05T00:36:41.531Z,0
2017-01-05T00:37:52.929Z,0
2017-01-05T00:39:04.323Z,0
2017-01-05T00:40:15.719Z,0
2017-01-05T00:41:27.165Z,0
2017-01-05T00:42:38.562Z,0
2017-01-05T00:43:49.954Z,0
2017-01-05T00:45:01.348Z,0
2017-01-05T00:46:12.739Z,0
2017-01-05T00:47:24.386Z,0
2017-01-05T00:48:35.825Z,0
2017-01-05T00:49:47.228Z,0
2017-01-05T00:50:58.828Z,0
2017-01-05T00:52:10.227Z,0
2017-01-05T00:53:21.674Z,0
2017-01-05T00:54:33.105Z,0
2017-01-05T00:55:44.506Z,0
2017-01-05T00:56:55.908Z,0
2017-01-05T00:58:07.504Z,0
2017-01-05T00:59:18.948Z,0
2017-01-05T01:00:30.343Z,0
2017-01-05T01:01:41.740Z,0
2017-01-05T01:02:53.140Z,0
2017-01-05T01:04:04.740Z,0
2017-01-05T01:05:16.184Z,0
2017-01-05T01:06:27.591Z,0
2017-01-05T01:07:38.991Z,0
2017-01-05T01:08:50.394Z,0
2017-01-05T01:10:01.811Z,0
2017-01-05T01:11:13.268Z,0
2017-01-05T01:12:24.669Z,0
2017-01-05T01:13:36.066Z,0
2017-01-05T01:14:47.465Z,0
2017-01-05T01:15:59.062Z,0
2017-01-05T01:17:10.519Z,0
2017-01-05T01:18:21.921Z,0
2017-01-05T01:19:33.321Z,0
2017-01-05T01:20:44.720Z,0
2017-01-05T01:21:56.157Z,0
2017-01-05T01:23:07.605Z,0
2017-01-05T01:24:19.013Z,0
2017-01-05T01:25:30.411Z,0
2017-01-05T01:26:41.825Z,0
2017-01-05T01:27:53.242Z,0
2017-01-05T01:29:04.916Z,0
2017-01-05T01:30:16.312Z,0
2017-01-05T01:31:27.722Z,0
2017-01-05T01:32:39.529Z,0
2017-01-05T01:33:50.932Z,0
2017-01-05T01:35:02.377Z,0
2017-01-05T01:36:13.785Z,0
2017-01-05T01:37:25.190Z,0
2017-01-05T01:38:36.596Z,0
2017-01-05T01:39:48.000Z,0
2017-01-05T01:40:59.404Z,0
2017-01-05T01:42:10.795Z,0
2017-01-05T01:43:22.187Z,0
2017-01-05T01:44:33.590Z,0
2017-01-05T01:45:45.044Z,0
2017-01-05T01:46:56.442Z,0
2017-01-05T01:48:07.842Z,0
2017-01-05T01:49:19.251Z,0
2017-01-05T01:50:30.657Z,0
2017-01-05T01:51:42.102Z,0
2017-01-05T01:52:53.497Z,0
2017-01-05T01:54:04.896Z,0
2017-01-05T01:55:16.291Z,0
2017-01-05T01:56:27.700Z,0
2017-01-05T01:57:39.155Z,0
2017-01-05T01:58:50.756Z,0
2017-01-05T02:00:02.156Z,0
2017-01-05T02:01:13.553Z,0
2017-01-05T02:02:24.949Z,0
2017-01-05T02:03:36.397Z,0
2017-01-05T02:04:47.995Z,0
2017-01-05T02:05:59.599Z,0
2017-01-05T02:07:10.996Z,0
2017-01-05T02:08:22.397Z,0
2017-01-05T02:09:33.847Z,0
2017-01-05T02:10:45.247Z,0
2017-01-05T02:11:56.642Z,0
2017-01-05T02:13:08.039Z,0
2017-01-05T02:14:19.638Z,0
2017-01-05T02:15:31.284Z,0
2017-01-05T02:16:42.680Z,0
2017-01-05T02:17:54.079Z,0
2017-01-05T02:19:05.481Z,0
2017-01-05T02:20:17.294Z,0
2017-01-05T02:21:28.745Z,0
2017-01-05T02:22:40.144Z,0
2017-01-05T02:23:51.749Z,0
2017-01-05T02:25:03.149Z,0
2017-01-05T02:26:14.539Z,0
2017-01-05T02:27:25.988Z,0
2017-01-05T02:28:37.417Z,0
2017-01-05T02:29:48.809Z,0
2017-01-05T02:31:00.232Z,0
2017-01-05T02:32:11.631Z,0
2017-01-05T02:33:23.087Z,0
2017-01-05T02:34:34.478Z,0
2017-01-05T02:35:45.873Z,0
2017-01-05T02:36:57.273Z,0
2017-01-05T02:38:08.674Z,0
2017-01-05T02:39:20.332Z,0
2017-01-05T02:40:31.730Z,0
2017-01-05T02:41:43.129Z,0
2017-01-05T02:42:54.731Z,0
2017-01-05T02:44:06.536Z,0
2017-01-05T02:45:17.985Z,0
2017-01-05T02:46:29.383Z,0
2017-01-05T02:47:40.786Z,0
2017-01-05T02:48:52.388Z,0
2017-01-05T02:50:03.798Z,0
2017-01-05T02:51:15.245Z,0
2017-01-05T02:52:26.642Z,0
2017-01-05T02:53:38.035Z,0
2017-01-05T02:54:49.437Z,0
2017-01-05T02:56:00.838Z,0
2017-01-05T02:57:12.696Z,0
2017-01-05T02:58:24.087Z,0
2017-01-05T02:59:35.488Z,0
2017-01-05T03:00:46.888Z,0
2017-01-05T03:01:58.284Z,0
2017-01-05T03:03:09.737Z,0
2017-01-05T03:04:21.139Z,0
2017-01-05T03:05:32.944Z,0
2017-01-05T03:06:44.586Z,0
2017-01-05T03:07:56.186Z,0
2017-01-05T03:09:07.634Z,0
2017-01-05T03:10:19.227Z,0
2017-01-05T03:11:30.625Z,0
2017-01-05T03:12:42.026Z,0
2017-01-05T03:13:53.446Z,0
2017-01-05T03:15:05.093Z,0
2017-01-05T03:16:16.493Z,0
2017-01-05T03:17:28.102Z,0
2017-01-05T03:18:39.509Z,0
2017-01-05T03:19:51.114Z,0
2017-01-05T03:21:02.549Z,0
2017-01-05T03:22:13.947Z,0
2017-01-05T03:23:25.346Z,0
2017-01-05T03:24:36.782Z,0
2017-01-05T03:25:48.234Z,0
2017-01-05T03:26:59.638Z,0
2017-01-05T03:28:11.048Z,0
2017-01-05T03:29:22.442Z,0
2017-01-05T03:30:33.836Z,0
2017-01-05T03:31:45.286Z,0
2017-01-05T03:32:56.688Z,0
2017-01-05T03:34:08.092Z,0
2017-01-05T03:35:19.493Z,0
2017-01-05T03:36:30.899Z,0
2017-01-05T03:37:42.355Z,0
2017-01-05T03:38:53.779Z,0
2017-01-05T03:40:05.206Z,0
2017-01-05T03:41:16.802Z,0
2017-01-05T03:42:28.196Z,0
2017-01-05T03:43:39.643Z,0
2017-01-05T03:44:51.051Z,0
2017-01-05T03:46:02.647Z,0
2017-01-05T03:47:14.038Z,0
2017-01-05T03:48:25.435Z,0
2017-01-05T03:49:37.090Z,0
2017-01-05T03:50:48.693Z,0
2017-01-05T03:52:00.098Z,0
2017-01-05T03:53:11.723Z,0
2017-01-05T03:54:23.321Z,0
2017-01-05T03:55:34.773Z,0
2017-01-05T03:56:46.175Z,0
2017-01-05T03:57:57.774Z,0
2017-01-05T03:59:09.174Z,0
2017-01-05T04:00:20.573Z,0
2017-01-05T04:01:32.032Z,0
2017-01-05T04:02:43.435Z,0
2017-01-05T04:03:54.828Z,0
2017-01-05T04:05:06.222Z,0
2017-01-05T04:06:17.627Z,0
2017-01-05T04:07:29.078Z,0
2017-01-05T04:08:40.476Z,0
2017-01-05T04:09:52.068Z,0
2017-01-05T04:11:03.469Z,0
2017-01-05T04:12:14.873Z,0
2017-01-05T04:13:26.325Z,0
2017-01-05T04:14:37.923Z,0
2017-01-05T04:15:49.524Z,0
2017-01-05T04:17:01.123Z,0
2017-01-05T04:18:12.725Z,0
2017-01-05T04:19:24.171Z,0
2017-01-05T04:20:35.767Z,0
2017-01-05T04:21:47.170Z,0
2017-01-05T04:22:58.582Z,0
2017-01-05T04:24:09.970Z,0
2017-01-05T04:25:21.424Z,0
2017-01-05T04:26:33.026Z,0
2017-01-05T04:27:44.430Z,0
2017-01-05T04:28:56.048Z,0
2017-01-05T04:30:07.448Z,0
2017-01-05T04:31:18.928Z,0
2017-01-05T04:32:30.335Z,0
2017-01-05T04:33:41.764Z,0
2017-01-05T04:34:53.164Z,0
2017-01-05T04:36:04.549Z,0
2017-01-05T04:37:15.998Z,0
2017-01-05T04:38:27.396Z,0
2017-01-05T04:39:38.795Z,0
2017-01-05T04:40:50.427Z,0
2017-01-05T04:42:01.821Z,0
2017-01-05T04:43:13.270Z,0
2017-01-05T04:44:24.660Z,0
2017-01-05T04:45:36.056Z,0
2017-01-05T04:46:47.656Z,0
2017-01-05T04:47:59.051Z,0
2017-01-05T04:49:10.495Z,0
2017-01-05T04:50:21.896Z,0
2017-01-05T04:51:33.293Z,0
2017-01-05T04:52:44.698Z,0
2017-01-05T04:53:56.105Z,0
2017-01-05T04:55:07.556Z,0
2017-01-05T04:56:18.960Z,0
2017-01-05T04:57:30.362Z,0
2017-01-05T04:58:41.763Z,0
2017-01-05T04:59:53.162Z,0
2017-01-05T05:01:04.567Z,0
2017-01-05T05:02:15.976Z,0
2017-01-05T05:03:27.580Z,0
2017-01-05T05:04:38.981Z,0
2017-01-05T05:05:50.626Z,0
2017-01-05T05:07:02.025Z,0
2017-01-05T05:08:13.435Z,0
2017-01-05T05:09:25.030Z,0
2017-01-05T05:10:36.628Z,0
2017-01-05T05:11:48.273Z,0
2017-01-05T05:12:59.668Z,0
2017-01-05T05:14:11.079Z,0
2017-01-05T05:15:22.483Z,0
2017-01-05T05:16:34.083Z,0
2017-01-05T05:17:45.526Z,0
2017-01-05T05:18:56.929Z,0
2017-01-05T05:20:08.530Z,0
2017-01-05T05:21:19.939Z,0
2017-01-05T05:22:31.345Z,0
2017-01-05T05:23:42.995Z,0
2017-01-05T05:24:54.387Z,0
2017-01-05T05:26:05.985Z,0
2017-01-05T05:27:17.384Z,0
2017-01-05T05:28:28.810Z,0
2017-01-05T05:29:40.253Z,0
2017-01-05T05:30:51.651Z,0
2017-01-05T05:32:03.055Z,0
2017-01-05T05:33:14.446Z,0
2017-01-05T05:34:25.843Z,0
2017-01-05T05:35:37.287Z,0
2017-01-05T05:36:48.692Z,0
2017-01-05T05:38:00.096Z,0
2017-01-05T05:39:11.496Z,0
2017-01-05T05:40:23.094Z,0
2017-01-05T05:41:34.546Z,0
2017-01-05T05:42:45.949Z,0
2017-01-05T05:43:57.547Z,0
2017-01-05T05:45:08.935Z,0
2017-01-05T05:46:20.340Z,0
2017-01-05T05:47:31.800Z,0
2017-01-05T05:48:43.197Z,0
2017-01-05T05:49:54.804Z,0
2017-01-05T05:51:06.610Z,0
2017-01-05T05:52:18.011Z,0
2017-01-05T05:53:29.462Z,0
2017-01-05T05:54:40.860Z,0
2017-01-05T05:55:52.467Z,0
2017-01-05T05:57:03.878Z,0
2017-01-05T05:58:15.278Z,0
2017-01-05T05:59:26.928Z,0
2017-01-05T06:00:38.325Z,0
2017-01-05T06:01:49.717Z,0
2017-01-05T06:03:01.127Z,0
2017-01-05T06:04:12.514Z,0
2017-01-05T06:05:23.961Z,0
2017-01-05T06:06:35.357Z,0
2017-01-05T06:07:46.754Z,0
2017-01-05T06:08:58.353Z,0
2017-01-05T06:10:09.754Z,0
2017-01-05T06:11:21.231Z,0
2017-01-05T06:12:32.626Z,0
2017-01-05T06:13:44.036Z,0
2017-01-05T06:14:55.430Z,0
2017-01-05T06:16:06.828Z,0
2017-01-05T06:17:18.273Z,0
2017-01-05T06:18:29.671Z,0
2017-01-05T06:19:41.096Z,0
2017-01-05T06:20:52.491Z,0
2017-01-05T06:22:03.889Z,0
2017-01-05T06:23:15.535Z,0
2017-01-05T06:24:26.934Z,0
2017-01-05T06:25:38.335Z,0
2017-01-05T06:26:49.730Z,0
2017-01-05T06:28:01.328Z,0
2017-01-05T06:29:12.771Z,0
2017-01-05T06:30:24.168Z,0
2017-01-05T06:31:35.586Z,0
2017-01-05T06:32:46.988Z,0
2017-01-05T06:33:58.378Z,0
2017-01-05T06:35:09.831Z,0
2017-01-05T06:36:21.225Z,0
2017-01-05T06:37:32.621Z,0
2017-01-05T06:38:44.050Z,0
2017-01-05T06:39:55.443Z,0
2017-01-05T06:41:07.047Z,0
2017-01-05T06:42:18.435Z,0
2017-01-05T06:43:30.024Z,0
2017-01-05T06:44:41.446Z,0
2017-01-05T06:45:52.890Z,0
2017-01-05T06:47:04.321Z,0
2017-01-05T06:48:15.722Z,0
2017-01-05T06:49:27.117Z,0
2017-01-05T06:50:38.519Z,4
2017-01-05T06:51:49.972Z,4
2017-01-05T06:53:01.575Z,0
2017-01-05T06:54:12.976Z,4
2017-01-05T06:55:24.368Z,4
2017-01-05T06:56:35.762Z,4
2017-01-05T06:57:47.211Z,4
2017-01-05T06:58:58.609Z,4
2017-01-05T07:00:10.405Z,8
2017-01-05T07:01:21.985Z,8
2017-01-05T07:02:33.397Z,8
2017-01-05T07:03:44.851Z,12
2017-01-05T07:04:56.450Z,12
2017-01-05T07:06:07.851Z,16
2017-01-05T07:07:19.255Z,16
2017-01-05T07:08:31.073Z,20
2017-01-05T07:09:42.518Z,24
2017-01-05T07:10:53.919Z,28
2017-01-05T07:12:05.316Z,36
2017-01-05T07:13:16.717Z,44
2017-01-05T07:14:28.113Z,48
2017-01-05T07:15:39.571Z,56
2017-01-05T07:16:51.177Z,68
2017-01-05T07:18:02.768Z,80
2017-01-05T07:19:14.356Z,92
2017-01-05T07:20:25.740Z,108
2017-01-05T07:21:37.222Z,120
2017-01-05T07:22:48.616Z,140
2017-01-05T07:24:00.010Z,156
2017-01-05T07:25:11.409Z,176
2017-01-05T07:26:22.832Z,196
2017-01-05T07:27:34.273Z,220
2017-01-05T07:28:45.679Z,244
2017-01-05T07:29:57.279Z,268
2017-01-05T07:31:08.678Z,296
2017-01-05T07:32:20.069Z,320
2017-01-05T07:33:31.582Z,356
2017-01-05T07:34:42.979Z,384
2017-01-05T07:35:54.383Z,420
2017-01-05T07:37:05.775Z,448
2017-01-05T07:38:17.170Z,488
2017-01-05T07:39:28.622Z,524
2017-01-05T07:40:40.020Z,564
2017-01-05T07:41:51.424Z,600
2017-01-05T07:43:03.028Z,648
2017-01-05T07:44:14.426Z,692
2017-01-05T07:45:25.869Z,744
2017-01-05T07:46:37.265Z,796
2017-01-05T07:47:48.701Z,852
2017-01-05T07:49:00.299Z,908
2017-01-05T07:50:11.726Z,968
2017-01-05T07:51:23.168Z,1020
2017-01-05T07:52:34.557Z,1076
2017-01-05T07:53:46.149Z,1136
2017-01-05T07:54:57.529Z,1196
2017-01-05T07:56:09.123Z,1260
2017-01-05T07:57:20.564Z,1328
2017-01-05T07:58:31.959Z,1388
2017-01-05T07:59:43.551Z,1516
2017-01-05T08:00:55.148Z,1664
2017-01-05T08:02:06.758Z,1752
2017-01-05T08:03:18.197Z,1732
2017-01-05T08:04:29.800Z,1764
2017-01-05T08:05:41.225Z,1876
2017-01-05T08:06:52.647Z,2188
2017-01-05T08:08:04.046Z,2140
2017-01-05T08:09:15.488Z,2304
2017-01-05T08:10:26.892Z,2624
2017-01-05T08:11:38.287Z,2556
2017-01-05T08:12:49.686Z,2452
2017-01-05T08:14:01.286Z,2224
2017-01-05T08:15:12.737Z,2792
2017-01-05T08:16:24.136Z,3204
2017-01-05T08:17:35.537Z,3816
2017-01-05T08:18:46.934Z,4468
2017-01-05T08:19:58.333Z,4280
2017-01-05T08:21:09.786Z,5572
2017-01-05T08:22:21.180Z,7336
2017-01-05T08:23:32.784Z,9636
2017-01-05T08:24:44.180Z,10052
2017-01-05T08:25:55.586Z,8708
2017-01-05T08:27:07.240Z,7868
2017-01-05T08:28:18.646Z,11712
2017-01-05T08:29:30.039Z,15040
2017-01-05T08:30:41.440Z,18368
2017-01-05T08:31:52.841Z,21920
2017-01-05T08:33:04.494Z,21280
2017-01-05T08:34:15.886Z,21536
2017-01-05T08:35:27.290Z,17824
2017-01-05T08:36:38.689Z,16064
2017-01-05T08:37:50.085Z,17952
2017-01-05T08:39:01.547Z,21856
2017-01-05T08:40:13.151Z,22880
2017-01-05T08:41:24.551Z,18400
2017-01-05T08:42:35.949Z,6312
2017-01-05T08:43:47.356Z,4044
2017-01-05T08:44:58.800Z,12352
2017-01-05T08:46:10.199Z,19328
2017-01-05T08:47:21.804Z,18048
2017-01-05T08:48:33.409Z,17760
2017-01-05T08:49:44.811Z,14624
2017-01-05T08:50:56.216Z,16704
2017-01-05T08:52:07.609Z,17664
2017-01-05T08:53:19.017Z,21056
2017-01-05T08:54:30.419Z,21696
2017-01-05T08:55:41.878Z,22240
2017-01-05T08:56:53.287Z,27776
2017-01-05T08:58:04.689Z,33760
2017-01-05T08:59:16.095Z,37728
2017-01-05T09:00:27.492Z,38880
2017-01-05T09:01:38.941Z,38784
2017-01-05T09:02:50.352Z,31328
2017-01-05T09:04:01.763Z,21664
2017-01-05T09:05:13.168Z,20960
2017-01-05T09:06:24.579Z,23488
2017-01-05T09:07:36.041Z,23040
2017-01-05T09:08:47.479Z,28192
2017-01-05T09:09:58.885Z,34496
2017-01-05T09:11:10.291Z,38144
2017-01-05T09:12:21.694Z,39552
2017-01-05T09:13:33.166Z,39680
2017-01-05T09:14:44.574Z,32224
2017-01-05T09:15:55.984Z,29888
2017-01-05T09:17:07.392Z,31776
2017-01-05T09:18:18.827Z,38688
2017-01-05T09:19:30.285Z,44320
2017-01-05T09:20:41.691Z,52864
2017-01-05T09:21:53.097Z,57312
2017-01-05T09:23:04.506Z,60256
2017-01-05T09:24:15.918Z,60128
2017-01-05T09:25:27.375Z,54560
2017-01-05T09:26:38.782Z,59680
2017-01-05T09:27:50.185Z,55680
2017-01-05T09:29:01.596Z,59968
2017-01-05T09:30:13.203Z,60992
2017-01-05T09:31:24.859Z,60032
2017-01-05T09:32:36.298Z,64416
2017-01-05T09:33:47.706Z,61440
2017-01-05T09:34:59.113Z,61440
2017-01-05T09:36:10.524Z,67136
2017-01-05T09:37:22.010Z,65856
2017-01-05T09:38:33.423Z,64736
2017-01-05T09:39:44.839Z,66592
2017-01-05T09:40:56.249Z,66464
2017-01-05T09:42:07.869Z,65024
2017-01-05T09:43:19.328Z,64416
2017-01-05T09:44:31.144Z,64320
2017-01-05T09:45:42.563Z,63776
2017-01-05T09:46:53.978Z,66912
2017-01-05T09:48:05.592Z,69728
2017-01-05T09:49:17.253Z,69024
2017-01-05T09:50:28.868Z,67008
2017-01-05T09:51:40.278Z,64064
2017-01-05T09:52:51.703Z,62080
2017-01-05T09:54:03.117Z,62944
2017-01-05T09:55:14.580Z,63264
2017-01-05T09:56:25.995Z,63264
2017-01-05T09:57:37.447Z,64320
2017-01-05T09:58:48.860Z,64352
2017-01-05T10:00:00.267Z,63840
2017-01-05T10:01:11.732Z,63072
2017-01-05T10:02:23.134Z,62592
2017-01-05T10:03:34.545Z,60672
2017-01-05T10:04:46.165Z,60384
2017-01-05T10:05:57.579Z,58400
2017-01-05T10:07:09.040Z,56640
2017-01-05T10:08:20.855Z,57216
2017-01-05T10:09:32.268Z,58720
2017-01-05T10:10:43.683Z,57664
2017-01-05T10:11:55.097Z,56960
2017-01-05T10:13:06.555Z,58304
2017-01-05T10:14:17.971Z,61792
2017-01-05T10:15:29.587Z,59936
2017-01-05T10:16:41.034Z,56448
2017-01-05T10:17:52.648Z,58112
2017-01-05T10:19:04.102Z,57792
2017-01-05T10:20:15.712Z,55200
2017-01-05T10:21:27.117Z,56512
2017-01-05T10:22:38.732Z,56768
2017-01-05T10:23:50.145Z,55168
2017-01-05T10:25:01.608Z,54080
2017-01-05T10:26:13.230Z,52128
2017-01-05T10:27:24.638Z,58848
2017-01-05T10:28:36.059Z,63104
2017-01-05T10:29:47.674Z,55936
2017-01-05T10:30:59.137Z,57920
2017-01-05T10:32:10.549Z,52832
2017-01-05T10:33:22.158Z,58880
2017-01-05T10:34:33.574Z,57280
2017-01-05T10:35:45.238Z,58944
2017-01-05T10:36:56.646Z,56640
2017-01-05T10:38:08.255Z,59296
2017-01-05T10:39:19.679Z,57312
2017-01-05T10:40:31.087Z,54112
2017-01-05T10:41:42.549Z,53088
2017-01-05T10:42:53.968Z,51264
2017-01-05T10:44:05.382Z,49984
2017-01-05T10:45:16.794Z,51616
2017-01-05T10:46:28.196Z,49664
2017-01-05T10:47:39.667Z,47712
2017-01-05T10:48:51.286Z,46784
2017-01-05T10:50:02.691Z,46208
2017-01-05T10:51:14.301Z,47040
2017-01-05T10:52:25.721Z,47008
2017-01-05T10:53:37.379Z,45984
2017-01-05T10:54:48.813Z,47616
2017-01-05T10:56:00.219Z,47360
2017-01-05T10:57:11.637Z,46944
2017-01-05T10:58:23.047Z,46752
2017-01-05T10:59:34.512Z,46688
2017-01-05T11:00:45.924Z,36224
2017-01-05T11:01:57.327Z,45088
2017-01-05T11:03:08.739Z,47968
2017-01-05T11:04:20.149Z,48000
2017-01-05T11:05:31.601Z,48672
2017-01-05T11:06:43.218Z,47680
2017-01-05T11:07:54.620Z,46912
2017-01-05T11:09:06.042Z,14040
2017-01-05T11:10:17.457Z,50240
2017-01-05T11:11:28.917Z,49536
2017-01-05T11:12:40.334Z,47040
2017-01-05T11:13:51.952Z,42368
2017-01-05T11:15:03.364Z,8420
2017-01-05T11:16:14.981Z,6592
2017-01-05T11:17:26.645Z,5992
2017-01-05T11:18:38.062Z,11196
2017-01-05T11:19:49.471Z,40416
2017-01-05T11:21:00.886Z,40992
2017-01-05T11:22:12.289Z,8492
2017-01-05T11:23:23.754Z,20416
2017-01-05T11:24:35.161Z,14580
2017-01-05T11:25:46.562Z,19168
2017-01-05T11:26:57.965Z,22976
2017-01-05T11:28:09.386Z,10460
2017-01-05T11:29:21.045Z,23616
2017-01-05T11:30:32.449Z,24768
2017-01-05T11:31:44.064Z,7020
2017-01-05T11:32:55.472Z,6144
2017-01-05T11:34:06.872Z,6784
2017-01-05T11:35:18.330Z,20928
2017-01-05T11:36:29.951Z,25184
2017-01-05T11:37:41.352Z,27392
2017-01-05T11:38:52.795Z,38304
2017-01-05T11:40:04.405Z,40160
2017-01-05T11:41:16.058Z,42464
2017-01-05T11:42:27.667Z,41568
2017-01-05T11:43:39.077Z,46176
2017-01-05T11:44:50.476Z,40960
2017-01-05T11:46:01.883Z,41280
2017-01-05T11:47:13.337Z,47936
2017-01-05T11:48:24.737Z,45984
2017-01-05T11:49:36.137Z,37472
2017-01-05T11:50:47.539Z,30304
2017-01-05T11:51:58.942Z,29920
2017-01-05T11:53:10.398Z,25664
2017-01-05T11:54:21.804Z,22208
2017-01-05T11:55:33.211Z,14308
2017-01-05T11:56:44.619Z,23616
2017-01-05T11:57:56.057Z,22240
2017-01-05T11:59:07.515Z,37056
2017-01-05T12:00:18.920Z,34624
2017-01-05T12:01:30.330Z,32544
2017-01-05T12:02:41.777Z,32160
2017-01-05T12:03:53.186Z,8968
2017-01-05T12:05:04.640Z,5380
2017-01-05T12:06:16.046Z,4840
2017-01-05T12:07:27.449Z,4996
2017-01-05T12:08:38.856Z,5256
2017-01-05T12:09:50.252Z,5480
2017-01-05T12:11:01.697Z,6028
2017-01-05T12:12:13.100Z,8664
2017-01-05T12:13:24.515Z,6824
2017-01-05T12:14:35.920Z,5076
2017-01-05T12:15:47.321Z,4652
2017-01-05T12:16:58.776Z,4628
2017-01-05T12:18:10.183Z,4736
2017-01-05T12:19:21.611Z,5016
2017-01-05T12:20:33.016Z,5820
2017-01-05T12:21:44.412Z,6656
2017-01-05T12:22:55.865Z,16736
2017-01-05T12:24:07.266Z,24096
2017-01-05T12:25:19.097Z,26272
2017-01-05T12:26:30.491Z,24480
2017-01-05T12:27:41.888Z,25024
2017-01-05T12:28:53.340Z,21984
2017-01-05T12:30:04.787Z,11588
2017-01-05T12:31:16.194Z,7184
2017-01-05T12:32:27.601Z,10380
2017-01-05T12:33:38.998Z,20288
2017-01-05T12:34:50.462Z,28736
2017-01-05T12:36:01.862Z,26112
2017-01-05T12:37:13.464Z,23712
2017-01-05T12:38:24.867Z,22688
2017-01-05T12:39:36.269Z,24512
2017-01-05T12:40:47.683Z,25280
2017-01-05T12:41:59.082Z,20032
2017-01-05T12:43:10.498Z,19328
2017-01-05T12:44:21.903Z,20128
2017-01-05T12:45:33.558Z,23808
2017-01-05T12:46:44.957Z,6660
2017-01-05T12:47:56.361Z,21248
2017-01-05T12:49:07.764Z,21792
2017-01-05T12:50:19.169Z,12628
2017-01-05T12:51:31.019Z,17440
2017-01-05T12:52:42.412Z,18240
2017-01-05T12:53:53.814Z,20288
2017-01-05T12:55:05.219Z,16928
2017-01-05T12:56:16.840Z,19936
2017-01-05T12:57:28.510Z,17440
2017-01-05T12:58:39.919Z,15360
2017-01-05T12:59:51.325Z,17408
2017-01-05T13:01:02.731Z,6852
2017-01-05T13:02:14.120Z,14912
2017-01-05T13:03:25.579Z,12860
2017-01-05T13:04:36.986Z,16032
2017-01-05T13:05:48.380Z,12820
2017-01-05T13:06:59.786Z,12740
2017-01-05T13:08:11.379Z,11868
2017-01-05T13:09:23.031Z,7880
2017-01-05T13:10:34.430Z,5640
2017-01-05T13:11:45.828Z,5636
2017-01-05T13:12:57.435Z,5292
2017-01-05T13:14:09.035Z,4412
2017-01-05T13:15:20.485Z,4328
2017-01-05T13:16:31.880Z,4288
2017-01-05T13:17:43.281Z,4120
2017-01-05T13:18:54.696Z,4068
2017-01-05T13:20:06.300Z,3964
2017-01-05T13:21:17.946Z,3892
2017-01-05T13:22:29.344Z,3732
2017-01-05T13:23:40.757Z,3696
2017-01-05T13:24:52.160Z,3740
2017-01-05T13:26:03.556Z,3576
2017-01-05T13:27:15.210Z,3456
2017-01-05T13:28:26.607Z,3536
2017-01-05T13:29:38.008Z,3660
2017-01-05T13:30:49.416Z,3828
2017-01-05T13:32:00.811Z,4484
2017-01-05T13:33:12.259Z,3380
2017-01-05T13:34:23.660Z,3140
2017-01-05T13:35:35.065Z,3056
2017-01-05T13:36:46.470Z,4608
2017-01-05T13:37:58.070Z,3204
2017-01-05T13:39:09.526Z,3188
2017-01-05T13:40:20.927Z,6724
2017-01-05T13:41:32.328Z,6040
2017-01-05T13:42:43.721Z,5780
2017-01-05T13:43:55.113Z,6048
2017-01-05T13:45:06.559Z,6128
2017-01-05T13:46:18.153Z,7104
2017-01-05T13:47:29.557Z,6400
2017-01-05T13:48:40.958Z,5936
2017-01-05T13:49:52.357Z,5148
2017-01-05T13:51:03.795Z,5008
2017-01-05T13:52:15.199Z,5344
2017-01-05T13:53:26.595Z,6016
2017-01-05T13:54:37.984Z,5884
2017-01-05T13:55:49.593Z,4748
2017-01-05T13:57:01.044Z,5400
2017-01-05T13:58:12.438Z,5240
2017-01-05T13:59:24.039Z,4836
2017-01-05T14:00:35.438Z,3996
2017-01-05T14:01:47.038Z,3228
2017-01-05T14:02:58.696Z,2916
2017-01-05T14:04:10.296Z,2916
2017-01-05T14:05:21.693Z,2928
2017-01-05T14:06:33.097Z,3000
2017-01-05T14:07:44.500Z,3540
2017-01-05T14:08:56.142Z,3944
2017-01-05T14:10:07.543Z,3868
2017-01-05T14:11:18.936Z,3780
2017-01-05T14:12:30.543Z,3572
2017-01-05T14:13:41.934Z,3388
2017-01-05T14:14:53.583Z,3580
2017-01-05T14:16:04.982Z,3492
2017-01-05T14:17:16.390Z,3036
2017-01-05T14:18:27.783Z,2860
2017-01-05T14:19:39.388Z,2612
2017-01-05T14:20:50.787Z,2496
2017-01-05T14:22:02.186Z,2264
2017-01-05T14:23:13.594Z,2020
2017-01-05T14:24:24.993Z,1952
2017-01-05T14:25:36.444Z,1900
2017-01-05T14:26:47.836Z,1792
2017-01-05T14:27:59.239Z,1764
2017-01-05T14:29:10.641Z,1748
2017-01-05T14:30:22.044Z,1724
2017-01-05T14:31:33.489Z,1704
2017-01-05T14:32:45.284Z,1684
2017-01-05T14:33:56.696Z,1668
2017-01-05T14:35:08.102Z,1648
2017-01-05T14:36:19.698Z,1632
2017-01-05T14:37:31.358Z,1616
2017-01-05T14:38:42.758Z,1596
2017-01-05T14:39:54.169Z,1576
2017-01-05T14:41:05.571Z,1556
2017-01-05T14:42:16.970Z,1536
2017-01-05T14:43:28.427Z,1516
2017-01-05T14:44:39.833Z,1492
2017-01-05T14:45:51.435Z,1464
2017-01-05T14:47:02.829Z,1444
2017-01-05T14:48:14.226Z,1416
2017-01-05T14:49:25.684Z,1388
2017-01-05T14:50:37.109Z,1364
2017-01-05T14:51:48.502Z,1336
2017-01-05T14:52:59.900Z,1316
2017-01-05T14:54:11.292Z,1316
2017-01-05T14:55:22.889Z,1308
2017-01-05T14:56:34.285Z,1292
2017-01-05T14:57:45.677Z,1272
2017-01-05T14:58:57.071Z,1252
2017-01-05T15:00:08.722Z,1220
2017-01-05T15:01:20.122Z,1180
2017-01-05T15:02:31.526Z,1148
2017-01-05T15:03:42.922Z,1108
2017-01-05T15:04:54.325Z,1072
2017-01-05T15:06:05.973Z,1032
2017-01-05T15:07:17.385Z,992
2017-01-05T15:08:28.789Z,952
2017-01-05T15:09:40.187Z,912
2017-01-05T15:10:51.591Z,868
2017-01-05T15:12:03.038Z,824
2017-01-05T15:13:14.438Z,780
2017-01-05T15:14:25.870Z,744
2017-01-05T15:15:37.269Z,700
2017-01-05T15:16:48.661Z,660
2017-01-05T15:18:00.109Z,624
2017-01-05T15:19:11.505Z,592
2017-01-05T15:20:22.904Z,556
2017-01-05T15:21:34.302Z,520
2017-01-05T15:22:45.905Z,488
2017-01-05T15:23:57.346Z,456
2017-01-05T15:25:08.739Z,424
2017-01-05T15:26:20.147Z,396
2017-01-05T15:27:31.537Z,368
2017-01-05T15:28:42.928Z,344
2017-01-05T15:29:54.378Z,316
2017-01-05T15:31:05.781Z,288
2017-01-05T15:32:17.376Z,268
2017-01-05T15:33:28.778Z,244
2017-01-05T15:34:40.173Z,220
2017-01-05T15:35:51.613Z,200
2017-01-05T15:37:03.240Z,180
2017-01-05T15:38:14.844Z,164
2017-01-05T15:39:26.243Z,144
2017-01-05T15:40:37.641Z,128
2017-01-05T15:41:49.093Z,112
2017-01-05T15:43:00.481Z,104
2017-01-05T15:44:11.882Z,88
2017-01-05T15:45:23.290Z,76
2017-01-05T15:46:34.686Z,64
2017-01-05T15:47:46.127Z,56
2017-01-05T15:48:57.517Z,48
2017-01-05T15:50:08.918Z,44
2017-01-05T15:51:20.508Z,36
2017-01-05T15:52:31.905Z,32
2017-01-05T15:53:43.346Z,24
2017-01-05T15:54:54.749Z,20
2017-01-05T15:56:06.749Z,20
2017-01-05T15:57:18.145Z,16
2017-01-05T15:58:29.550Z,12
2017-01-05T15:59:40.995Z,8
2017-01-05T16:00:52.396Z,8
2017-01-05T16:02:03.794Z,8
2017-01-05T16:03:15.188Z,4
2017-01-05T16:04:26.578Z,4
2017-01-05T16:05:38.018Z,4
2017-01-05T16:06:49.416Z,4
2017-01-05T16:08:00.811Z,0
2017-01-05T16:09:12.207Z,4
2017-01-05T16:10:23.595Z,0
2017-01-05T16:11:35.049Z,0
2017-01-05T16:12:46.446Z,4
2017-01-05T16:13:57.839Z,4
2017-01-05T16:15:09.237Z,0
2017-01-05T16:16:20.830Z,0
2017-01-05T16:17:32.281Z,0
2017-01-05T16:18:43.668Z,0
2017-01-05T16:19:55.066Z,0
2017-01-05T16:21:06.471Z,0
2017-01-05T16:22:17.872Z,0
2017-01-05T16:23:29.325Z,0
2017-01-05T16:24:40.943Z,0
2017-01-05T16:25:52.336Z,0
2017-01-05T16:27:03.735Z,0
2017-01-05T16:28:15.149Z,0
2017-01-05T16:29:26.598Z,0
2017-01-05T16:30:38.198Z,0
2017-01-05T16:31:49.639Z,0
2017-01-05T16:33:01.231Z,0